Gulf Shores, AL (36542)

6:03 AM CST on February 07, 2016 (GMT -0600)
West Beach | | Change Station
CLOSE
Current Station
Personal Weather Station
Location: Gulf Shores, AL
Elevation: 39 ft
Nearby Weather Stations

Elev 39 ft 30.25 °N, 87.72 °W | Updated 3 minutes ago

Clear
Clear
40.5 °F
Feels Like 35 °F
N
9.0
Wind Variable Wind from NNW
Gusts 9.0 mph

Today
High -- | Low -- °F
--% Chance of Precip.
Yesterday
High -- | Low -- °F
Precip. -- in
Pressure 30.25 in
Visibility 10.0 miles
Clouds Clear
Windchill 35 °F
Dew Point 30 °F
Humidity 66%
Rainfall 0.00 in
Snow Depth Not available.
6:37 AM 5:32 PM
Waning Crescent, 2% visible
METAR KJKA 071155Z AUTO 32004KT 10SM CLR 02/M04 A3025 RMK AO2 T00191036 10047 20016
Pressure 30.25 in
Visibility 10.0 miles
Clouds Clear
Windchill 35 °F
Dew Point 30 °F
Humidity 66%
Rainfall 0.00 in
Snow Depth Not available.
6:37 AM 5:32 PM
Waning Crescent, 2% visible
METAR KJKA 071155Z AUTO 32004KT 10SM CLR 02/M04 A3025 RMK AO2 T00191036 10047 20016

10-Day Weather Forecast

Almanac

Astronomy

Feb. 07, 2016 Rise Set
Actual Time
Civil Twilight
Nautical Twilight
Astronomical Twilight
Moon
Length of Visible Light
Length of Day
Tomorrow will be .
, % of the Moon is Illuminated

Today's Extremes

State Highs State Lows

Community

WunderPhotos

Upload Photos

1,891,182 photos uploaded!

WunderBlog® & News

Nearby

Air Quality

  Air Quality AQ Index Pollutant
Not available.

Snow Depth

Station Depth Elevation

Earthquake Activity

City Distance Mag. Time & Date
Minimum magnitude displayed is 2.5.

Coastal Water Temperatures

Place Temperature

Stations

Nearby Weather Stations

Station Location Temp. Windchill Dew Point Humidity Wind Precip. Elev Updated Type
                   

Watches & Warnings

There are currently no watches in effect.